Time;durP1;ratioP1;P1;durP2;ratioP2;P2;SDS_P1;SDS_P2;PMS_P1;PMS_P2;Temp;Humidity;BMP_temperature;BMP_pressure;BME280_temperature;BME280_humidity;BME280_pressure;Samples;Min_cycle;Max_cycle;Signal;HPM_P1;HPM_P2
2021/11/21 00:02:20;;;;;;;20.13;6.60;;;10.80;99.90;;;;;;4982212;28;20022;-70
2021/11/21 00:04:46;;;;;;;15.65;7.53;;;10.80;99.90;;;;;;4987481;28;20388;-71
2021/11/21 00:07:12;;;;;;;12.70;6.50;;;10.80;99.90;;;;;;4988069;28;20018;-70
2021/11/21 00:09:37;;;;;;;13.35;6.30;;;10.70;99.90;;;;;;4987358;28;20069;-70
2021/11/21 00:12:03;;;;;;;13.75;6.45;;;10.70;99.90;;;;;;4979527;28;20457;-70
2021/11/21 00:14:30;;;;;;;15.68;6.63;;;10.70;99.90;;;;;;4983827;28;20023;-71
2021/11/21 00:17:00;;;;;;;13.85;7.15;;;10.70;99.90;;;;;;4987519;28;20396;-70
2021/11/21 00:19:26;;;;;;;16.85;7.53;;;10.80;99.90;;;;;;4996353;28;20013;-71
2021/11/21 00:21:51;;;;;;;15.13;7.57;;;10.70;99.90;;;;;;4988584;28;20492;-70
2021/11/21 00:24:17;;;;;;;18.60;7.72;;;10.70;99.90;;;;;;4985092;28;20023;-70
2021/11/21 00:26:43;;;;;;;14.75;6.80;;;10.70;99.90;;;;;;4989125;28;20036;-70
2021/11/21 00:29:08;;;;;;;14.45;7.53;;;10.70;99.90;;;;;;5000223;28;20018;-71
2021/11/21 00:31:34;;;;;;;15.07;6.60;;;10.70;99.90;;;;;;4988025;28;20400;-71
2021/11/21 00:33:59;;;;;;;14.02;6.72;;;10.70;99.90;;;;;;4988360;28;20019;-70
2021/11/21 00:36:25;;;;;;;12.60;6.05;;;10.70;99.90;;;;;;4979615;28;20010;-71
2021/11/21 00:38:50;;;;;;;13.38;6.13;;;10.70;99.90;;;;;;4988267;28;20033;-71
2021/11/21 00:41:16;;;;;;;13.45;7.10;;;10.80;99.90;;;;;;4980891;28;20034;-70
2021/11/21 00:43:41;;;;;;;10.48;5.55;;;10.80;99.90;;;;;;4985452;28;20064;-70
2021/11/21 00:46:07;;;;;;;13.13;6.55;;;10.80;99.90;;;;;;4978754;28;20022;-70
2021/11/21 00:48:36;;;;;;;11.35;5.55;;;10.70;99.90;;;;;;4978023;28;20058;-71
2021/11/21 00:51:02;;;;;;;10.88;5.50;;;10.70;99.90;;;;;;4984300;28;20542;-70
2021/11/21 00:53:28;;;;;;;13.30;6.65;;;10.80;99.90;;;;;;4982147;28;20344;-70
2021/11/21 00:56:01;;;;;;;12.25;6.75;;;10.70;99.90;;;;;;4985647;28;20018;-70
2021/11/21 00:58:27;;;;;;;12.57;6.18;;;10.70;99.90;;;;;;4982914;28;20012;-70
2021/11/21 01:00:52;;;;;;;15.73;6.95;;;10.80;99.90;;;;;;4984209;28;20015;-71
2021/11/21 01:03:21;;;;;;;13.65;6.82;;;10.70;99.90;;;;;;4983176;28;20023;-71
2021/11/21 01:05:49;;;;;;;14.65;6.05;;;10.70;99.90;;;;;;4981843;28;20034;-70
2021/11/21 01:08:14;;;;;;;12.40;6.75;;;10.70;99.90;;;;;;4984263;28;20018;-70
2021/11/21 01:10:41;;;;;;;11.65;6.93;;;10.70;99.90;;;;;;4979084;28;20543;-70
2021/11/21 01:13:07;;;;;;;16.20;7.35;;;10.70;99.90;;;;;;4987728;28;20524;-70
2021/11/21 01:15:33;;;;;;;13.30;6.47;;;10.70;99.90;;;;;;4985675;28;20054;-70
2021/11/21 01:18:00;;;;;;;11.98;6.38;;;10.70;99.90;;;;;;4982482;28;20025;-70
2021/11/21 01:20:29;;;;;;;11.93;6.40;;;10.70;99.90;;;;;;4978309;28;20025;-70
2021/11/21 01:22:55;;;;;;;13.13;5.97;;;10.70;99.90;;;;;;4985850;28;20027;-70
2021/11/21 01:25:21;;;;;;;16.98;7.60;;;10.80;99.90;;;;;;4983793;28;20030;-70
2021/11/21 01:27:47;;;;;;;14.52;6.88;;;10.80;99.90;;;;;;4978936;28;20030;-70
2021/11/21 01:30:17;;;;;;;10.07;5.65;;;10.80;99.90;;;;;;4980755;28;20118;-70
2021/11/21 01:32:43;;;;;;;10.88;5.80;;;10.80;99.90;;;;;;4982934;28;20448;-71
2021/11/21 01:35:09;;;;;;;10.15;4.93;;;10.80;99.90;;;;;;4983868;28;20014;-71
2021/11/21 01:37:35;;;;;;;11.82;6.22;;;10.80;99.90;;;;;;4986060;28;20026;-70
2021/11/21 01:40:02;;;;;;;11.05;5.32;;;10.80;99.90;;;;;;4982265;28;20015;-71
2021/11/21 01:42:27;;;;;;;9.23;5.53;;;10.80;99.90;;;;;;4987185;28;20045;-71
2021/11/21 01:44:53;;;;;;;8.68;4.90;;;10.80;99.90;;;;;;4979829;28;20023;-70
2021/11/21 01:47:18;;;;;;;15.38;5.57;;;10.80;99.90;;;;;;4990261;28;20022;-70
2021/11/21 01:49:44;;;;;;;13.88;6.65;;;10.80;99.90;;;;;;4982616;28;20084;-71
2021/11/21 01:52:10;;;;;;;11.25;5.63;;;10.80;99.90;;;;;;4990307;28;20082;-70
2021/11/21 01:54:35;;;;;;;9.93;5.72;;;10.80;99.90;;;;;;4987430;28;20460;-70
2021/11/21 01:57:02;;;;;;;10.50;6.32;;;10.90;99.90;;;;;;4980145;28;20499;-71
2021/11/21 01:59:28;;;;;;;9.90;5.75;;;10.90;99.90;;;;;;4985086;28;20033;-70
2021/11/21 02:01:54;;;;;;;11.15;6.43;;;10.80;99.90;;;;;;4991094;28;20400;-70
2021/11/21 02:04:19;;;;;;;12.35;6.63;;;10.80;99.90;;;;;;4992914;28;20034;-71
2021/11/21 02:06:45;;;;;;;13.57;6.95;;;10.90;99.90;;;;;;4989506;28;20026;-70
2021/11/21 02:09:10;;;;;;;14.13;6.72;;;10.90;99.90;;;;;;4987392;28;20030;-70
2021/11/21 02:11:36;;;;;;;13.85;6.70;;;10.80;99.90;;;;;;4992999;28;20121;-70
2021/11/21 02:14:01;;;;;;;15.43;7.40;;;10.80;99.90;;;;;;4991373;28;20051;-71
2021/11/21 02:16:29;;;;;;;15.18;7.28;;;10.90;99.90;;;;;;4989700;28;20069;-70
2021/11/21 02:18:55;;;;;;;13.98;7.38;;;10.90;99.90;;;;;;4991000;28;20098;-70
2021/11/21 02:21:22;;;;;;;17.13;7.93;;;10.90;99.90;;;;;;4994083;28;20443;-70
2021/11/21 02:23:49;;;;;;;18.55;8.38;;;10.90;99.90;;;;;;4989021;28;20018;-71
2021/11/21 02:26:17;;;;;;;15.00;7.65;;;10.90;99.90;;;;;;4991507;28;20030;-70
2021/11/21 02:28:44;;;;;;;16.23;7.32;;;10.90;99.90;;;;;;4984839;28;20069;-71
2021/11/21 02:31:13;;;;;;;19.52;8.55;;;10.90;99.90;;;;;;4988097;28;20460;-70
2021/11/21 02:33:40;;;;;;;16.73;8.88;;;10.90;99.90;;;;;;4990561;28;20464;-70
2021/11/21 02:36:06;;;;;;;12.77;8.73;;;10.90;99.90;;;;;;4989613;28;20106;-70
2021/11/21 02:38:33;;;;;;;18.48;8.23;;;10.90;99.90;;;;;;4987222;28;20552;-70
2021/11/21 02:41:00;;;;;;;16.77;8.43;;;11.00;99.90;;;;;;4988527;28;20022;-70
2021/11/21 02:43:27;;;;;;;17.77;8.73;;;11.00;99.90;;;;;;4988485;28;20444;-70
2021/11/21 02:45:55;;;;;;;18.85;8.32;;;11.00;99.90;;;;;;4989259;28;20027;-70
2021/11/21 02:48:23;;;;;;;12.90;8.57;;;11.00;99.90;;;;;;4985349;28;20543;-70
2021/11/21 02:50:49;;;;;;;20.65;8.88;;;11.00;99.90;;;;;;4986107;28;20034;-70
2021/11/21 02:53:17;;;;;;;16.20;8.73;;;11.00;99.90;;;;;;4987616;28;20037;-71
2021/11/21 02:55:43;;;;;;;17.88;8.35;;;11.00;99.90;;;;;;4987332;28;20018;-71
2021/11/21 02:58:08;;;;;;;15.05;8.40;;;11.00;99.90;;;;;;4988881;28;20203;-71
2021/11/21 03:00:36;;;;;;;16.35;8.30;;;11.00;99.90;;;;;;4993018;28;20040;-70
2021/11/21 03:03:02;;;;;;;14.07;7.72;;;11.00;99.90;;;;;;4993338;28;20050;-70
2021/11/21 03:05:28;;;;;;;10.93;6.90;;;11.00;99.90;;;;;;4990908;28;20026;-70
2021/11/21 03:07:54;;;;;;;11.90;7.05;;;11.00;99.90;;;;;;4992253;28;20026;-71
2021/11/21 03:10:20;;;;;;;18.55;8.38;;;11.00;99.90;;;;;;4992094;28;20391;-70
2021/11/21 03:12:54;;;;;;;12.18;5.78;;;11.00;99.90;;;;;;5001978;28;20018;-70
2021/11/21 03:15:21;;;;;;;9.98;6.15;;;11.00;99.90;;;;;;4988181;28;20061;-71
2021/11/21 03:17:47;;;;;;;12.30;4.68;;;11.00;99.90;;;;;;4996667;28;20030;-70
2021/11/21 03:20:15;;;;;;;4.30;2.10;;;11.00;99.90;;;;;;4992863;28;20582;-71
2021/11/21 03:22:41;;;;;;;7.82;1.73;;;11.00;99.90;;;;;;4999478;28;20039;-71
2021/11/21 03:25:07;;;;;;;3.60;1.15;;;11.00;99.90;;;;;;4998049;28;20403;-71
2021/11/21 03:27:33;;;;;;;1.75;1.30;;;11.00;99.90;;;;;;4989083;28;20471;-71
2021/11/21 03:29:58;;;;;;;5.38;1.75;;;11.00;99.90;;;;;;4988466;28;20034;-71
2021/11/21 03:32:24;;;;;;;5.85;2.10;;;11.00;99.90;;;;;;4986057;28;20034;-71
2021/11/21 03:34:50;;;;;;;1.70;0.65;;;11.00;99.90;;;;;;4993347;28;20030;-71
2021/11/21 03:37:16;;;;;;;8.38;1.67;;;11.00;99.90;;;;;;4996322;28;20018;-71
2021/11/21 03:39:41;;;;;;;4.43;0.82;;;11.00;99.90;;;;;;4984637;28;20031;-71
2021/11/21 03:42:07;;;;;;;2.75;0.75;;;11.00;99.90;;;;;;4996426;28;20057;-71
2021/11/21 03:44:33;;;;;;;1.77;0.68;;;11.00;99.90;;;;;;4984923;28;20532;-71
2021/11/21 03:46:59;;;;;;;3.88;0.50;;;11.00;99.90;;;;;;4981611;28;20444;-71
2021/11/21 03:49:24;;;;;;;6.05;0.80;;;10.90;99.90;;;;;;4984892;28;20046;-70
2021/11/21 03:51:50;;;;;;;4.80;0.80;;;10.90;99.90;;;;;;4981786;28;20027;-71
2021/11/21 03:54:16;;;;;;;5.07;0.82;;;10.90;99.90;;;;;;4987928;28;20484;-71
2021/11/21 03:56:41;;;;;;;4.95;0.50;;;10.90;99.90;;;;;;4984563;28;20023;-70
2021/11/21 03:59:07;;;;;;;7.28;1.17;;;10.80;99.90;;;;;;4993015;28;20034;-70
2021/11/21 04:01:34;;;;;;;8.15;1.20;;;10.80;99.90;;;;;;4993350;28;20094;-71
2021/11/21 04:04:00;;;;;;;4.45;0.70;;;10.80;99.90;;;;;;4994850;28;20353;-71
2021/11/21 04:06:25;;;;;;;4.70;0.47;;;10.80;99.90;;;;;;4992622;28;20018;-70
2021/11/21 04:08:51;;;;;;;3.83;0.38;;;10.80;99.90;;;;;;4991075;28;20026;-71
2021/11/21 04:11:16;;;;;;;4.28;0.43;;;10.80;99.90;;;;;;4996617;28;20117;-71
2021/11/21 04:13:42;;;;;;;5.68;0.60;;;10.80;99.90;;;;;;4982015;28;20025;-71
2021/11/21 04:16:07;;;;;;;5.18;0.55;;;10.80;99.90;;;;;;4999936;28;20182;-71
2021/11/21 04:18:33;;;;;;;3.85;1.13;;;10.80;99.90;;;;;;4988337;28;20106;-71
2021/11/21 04:20:59;;;;;;;6.15;0.73;;;10.80;99.90;;;;;;4995186;28;20109;-71
2021/11/21 04:23:29;;;;;;;3.22;0.60;;;10.80;99.90;;;;;;4993894;28;20042;-70
2021/11/21 04:25:55;;;;;;;10.20;1.67;;;10.80;99.90;;;;;;4996644;28;20021;-71
2021/11/21 04:28:20;;;;;;;2.83;0.60;;;10.80;99.90;;;;;;5006208;28;20018;-72
2021/11/21 04:30:46;;;;;;;5.28;0.65;;;10.80;99.90;;;;;;4989587;28;20530;-72
2021/11/21 04:33:11;;;;;;;12.25;1.52;;;10.80;99.90;;;;;;4994617;28;20023;-71
2021/11/21 04:35:37;;;;;;;4.60;0.88;;;10.70;99.90;;;;;;4991147;28;20468;-70
2021/11/21 04:38:02;;;;;;;10.95;0.52;;;10.70;99.90;;;;;;5002725;28;20023;-70
2021/11/21 04:40:28;;;;;;;4.82;0.82;;;10.70;99.90;;;;;;4992788;28;20491;-70
2021/11/21 04:42:53;;;;;;;5.28;0.80;;;10.70;99.90;;;;;;4988027;28;20400;-70
2021/11/21 04:45:19;;;;;;;4.50;0.50;;;10.70;99.90;;;;;;5009384;28;20022;-71
2021/11/21 04:47:45;;;;;;;13.93;1.73;;;10.70;99.90;;;;;;4990268;28;20041;-70
2021/11/21 04:50:12;;;;;;;7.22;0.77;;;10.70;99.90;;;;;;4994692;28;20026;-70
2021/11/21 04:52:37;;;;;;;7.15;0.70;;;10.60;99.90;;;;;;4985361;28;20021;-71
2021/11/21 04:55:04;;;;;;;6.13;0.60;;;10.60;99.90;;;;;;4989550;28;20094;-70
2021/11/21 04:57:30;;;;;;;4.28;0.45;;;10.60;99.90;;;;;;4998432;28;20106;-70
2021/11/21 04:59:55;;;;;;;2.95;0.75;;;10.60;99.90;;;;;;4993804;28;20539;-70
2021/11/21 05:02:21;;;;;;;4.30;0.52;;;10.60;99.90;;;;;;4995130;28;20018;-70
2021/11/21 05:04:46;;;;;;;9.95;0.70;;;10.60;99.90;;;;;;4998401;28;20029;-71
2021/11/21 05:07:12;;;;;;;6.72;0.55;;;10.60;99.90;;;;;;4978515;28;20097;-70
2021/11/21 05:09:38;;;;;;;9.35;1.52;;;10.60;99.90;;;;;;4985971;28;20058;-70
2021/11/21 05:12:04;;;;;;;7.00;0.60;;;10.60;99.90;;;;;;4993486;28;20033;-70
2021/11/21 05:14:29;;;;;;;4.25;0.50;;;10.60;99.90;;;;;;4992346;28;20019;-70
2021/11/21 05:16:55;;;;;;;9.38;0.57;;;10.60;99.90;;;;;;4980248;28;20022;-70
2021/11/21 05:19:20;;;;;;;5.70;0.30;;;10.50;99.90;;;;;;4988145;28;20504;-70
2021/11/21 05:21:46;;;;;;;13.38;0.93;;;10.60;99.90;;;;;;4995212;28;20084;-70
2021/11/21 05:24:12;;;;;;;7.60;0.95;;;10.50;99.90;;;;;;4999756;28;20022;-70
2021/11/21 05:26:38;;;;;;;5.35;0.60;;;10.50;99.90;;;;;;5006788;28;20022;-70
2021/11/21 05:29:03;;;;;;;6.28;0.52;;;10.50;99.90;;;;;;4990328;28;20022;-70
2021/11/21 05:31:29;;;;;;;8.50;0.77;;;10.50;99.90;;;;;;4992086;28;20042;-70
2021/11/21 05:33:55;;;;;;;7.07;1.10;;;10.50;99.90;;;;;;4990403;28;20109;-71
2021/11/21 05:36:20;;;;;;;8.90;0.68;;;10.50;99.90;;;;;;5007934;28;20050;-70
2021/11/21 05:38:46;;;;;;;4.93;0.70;;;10.50;99.90;;;;;;5005727;28;20045;-70
2021/11/21 05:41:12;;;;;;;7.90;0.93;;;10.50;99.90;;;;;;4998136;28;20472;-70
2021/11/21 05:43:38;;;;;;;5.30;0.80;;;10.50;99.90;;;;;;5001031;28;20100;-71
2021/11/21 05:46:04;;;;;;;12.02;1.67;;;10.50;99.90;;;;;;4998489;28;20384;-70
2021/11/21 05:48:29;;;;;;;8.75;1.60;;;10.50;99.90;;;;;;4993470;28;20026;-70
2021/11/21 05:50:55;;;;;;;4.03;0.50;;;10.50;99.90;;;;;;4991036;28;20033;-71
2021/11/21 05:53:20;;;;;;;17.30;2.22;;;10.40;99.90;;;;;;4994201;28;20093;-70
2021/11/21 05:55:46;;;;;;;11.60;1.48;;;10.40;99.90;;;;;;4993976;28;20423;-70
2021/11/21 05:58:12;;;;;;;5.07;0.63;;;10.40;99.90;;;;;;4999175;28;20061;-70
2021/11/21 06:00:38;;;;;;;6.53;0.73;;;10.40;99.90;;;;;;5003792;28;20106;-70
2021/11/21 06:03:03;;;;;;;2.95;0.50;;;10.40;99.90;;;;;;5005424;28;20058;-70
2021/11/21 06:05:29;;;;;;;8.77;2.35;;;10.40;99.90;;;;;;4992143;28;20022;-70
2021/11/21 06:07:55;;;;;;;11.38;1.58;;;10.30;99.90;;;;;;4994174;28;20026;-71
2021/11/21 06:10:21;;;;;;;4.97;0.90;;;10.30;99.90;;;;;;4991841;28;20427;-71
2021/11/21 06:12:48;;;;;;;8.45;0.95;;;10.30;99.90;;;;;;4999088;28;20076;-71
2021/11/21 06:15:14;;;;;;;8.10;1.02;;;10.30;99.90;;;;;;4991411;28;20073;-70
2021/11/21 06:17:42;;;;;;;10.95;1.45;;;10.30;99.90;;;;;;4991977;28;20022;-70
2021/11/21 06:20:09;;;;;;;12.18;1.15;;;10.30;99.90;;;;;;4989408;28;20024;-71
2021/11/21 06:22:34;;;;;;;8.05;1.00;;;10.20;99.90;;;;;;4991953;28;20376;-70
2021/11/21 06:25:00;;;;;;;4.85;0.65;;;10.20;99.90;;;;;;4992684;28;20026;-70
2021/11/21 06:27:25;;;;;;;9.07;0.75;;;10.20;99.90;;;;;;4990262;28;20027;-70
2021/11/21 06:29:51;;;;;;;6.43;1.38;;;10.20;99.90;;;;;;4994356;28;20085;-70
2021/11/21 06:32:17;;;;;;;7.97;0.88;;;10.20;99.90;;;;;;4998760;28;20026;-70
2021/11/21 06:34:43;;;;;;;10.65;1.58;;;10.20;99.90;;;;;;4993276;28;20026;-70
2021/11/21 06:37:09;;;;;;;5.80;0.52;;;10.10;99.90;;;;;;4998290;28;20387;-70
2021/11/21 06:39:37;;;;;;;7.03;1.10;;;10.20;99.90;;;;;;4987660;28;20065;-71
2021/11/21 06:42:05;;;;;;;12.07;1.33;;;10.10;99.90;;;;;;4999561;28;20034;-70
2021/11/21 06:44:30;;;;;;;5.00;1.27;;;10.10;99.90;;;;;;4992709;28;20160;-71
2021/11/21 06:46:56;;;;;;;7.82;0.85;;;10.10;99.90;;;;;;4991654;28;20108;-71
2021/11/21 06:49:22;;;;;;;7.13;0.68;;;10.10;99.90;;;;;;4991731;28;20379;-70
2021/11/21 06:51:48;;;;;;;5.55;0.82;;;10.00;99.90;;;;;;4982824;28;20173;-70
2021/11/21 06:54:14;;;;;;;3.50;0.50;;;10.00;99.90;;;;;;4991950;28;20515;-70
2021/11/21 06:56:40;;;;;;;16.88;2.58;;;10.00;99.90;;;;;;4992538;28;20154;-71
2021/11/21 06:59:05;;;;;;;5.40;0.50;;;10.00;99.90;;;;;;4993206;28;20387;-70
2021/11/21 07:01:31;;;;;;;8.93;0.68;;;10.00;99.90;;;;;;4989385;28;20023;-71
2021/11/21 07:03:57;;;;;;;8.48;0.70;;;10.00;99.90;;;;;;4983142;28;20027;-71
2021/11/21 07:06:34;;;;;;;10.88;0.85;;;9.90;99.90;;;;;;4994677;28;20109;-70
2021/11/21 07:09:01;;;;;;;11.73;1.23;;;9.90;99.90;;;;;;4986075;28;20153;-70
2021/11/21 07:11:27;;;;;;;7.10;0.75;;;9.90;99.90;;;;;;4990429;28;20019;-71
2021/11/21 07:13:52;;;;;;;8.63;1.13;;;9.90;99.90;;;;;;4991899;28;20018;-71
2021/11/21 07:16:18;;;;;;;6.05;0.90;;;9.90;99.90;;;;;;4984860;28;20348;-70
2021/11/21 07:18:44;;;;;;;7.18;1.70;;;9.80;99.90;;;;;;4988263;28;20107;-71
2021/11/21 07:21:09;;;;;;;7.30;0.80;;;9.80;99.90;;;;;;5004161;28;20022;-70
2021/11/21 07:23:35;;;;;;;8.98;1.60;;;9.80;99.90;;;;;;4999767;28;20025;-71
2021/11/21 07:26:01;;;;;;;11.32;1.25;;;9.80;99.90;;;;;;5001095;28;20049;-71
2021/11/21 07:28:27;;;;;;;5.07;0.77;;;9.80;99.90;;;;;;4992553;28;20023;-70
2021/11/21 07:30:52;;;;;;;9.07;1.40;;;9.70;99.90;;;;;;4983840;28;20022;-70
2021/11/21 07:33:18;;;;;;;5.55;0.45;;;9.70;99.90;;;;;;4999897;28;20022;-71
2021/11/21 07:35:44;;;;;;;2.35;0.50;;;9.60;99.90;;;;;;5004194;28;20054;-70
2021/11/21 07:38:09;;;;;;;3.38;0.88;;;9.60;99.90;;;;;;4999870;28;20443;-71
2021/11/21 07:40:35;;;;;;;4.57;0.38;;;9.50;99.90;;;;;;4992763;28;20443;-70
2021/11/21 07:43:01;;;;;;;6.20;0.75;;;9.50;99.90;;;;;;4982414;28;20562;-71
2021/11/21 07:45:27;;;;;;;2.40;0.43;;;9.40;99.90;;;;;;4985580;28;20014;-72
2021/11/21 07:47:53;;;;;;;3.90;0.47;;;9.40;99.90;;;;;;4981391;28;20041;-72
2021/11/21 07:50:18;;;;;;;5.38;0.55;;;9.40;99.90;;;;;;4989647;28;20531;-72
2021/11/21 07:52:44;;;;;;;6.93;0.40;;;9.40;99.90;;;;;;4982760;28;20073;-70
2021/11/21 07:55:11;;;;;;;7.57;0.65;;;9.40;99.90;;;;;;4992125;28;20018;-71
2021/11/21 07:57:36;;;;;;;6.00;1.05;;;9.40;99.90;;;;;;5001084;28;20022;-70
2021/11/21 08:00:06;;;;;;;6.82;0.70;;;9.40;99.90;;;;;;4995161;28;20027;-70
2021/11/21 08:02:32;;;;;;;3.60;0.40;;;9.40;99.90;;;;;;4989092;28;20021;-70
2021/11/21 08:04:58;;;;;;;6.70;0.68;;;9.30;99.90;;;;;;4981871;28;20030;-71
2021/11/21 08:07:23;;;;;;;10.00;1.73;;;9.30;99.90;;;;;;4987566;28;20109;-70
2021/11/21 08:09:49;;;;;;;5.45;0.77;;;9.40;99.90;;;;;;4982182;28;20034;-70
2021/11/21 08:12:14;;;;;;;10.35;1.70;;;9.40;99.90;;;;;;4989639;28;20037;-70
2021/11/21 08:14:40;;;;;;;8.00;0.73;;;9.40;99.90;;;;;;4993039;28;20401;-70
2021/11/21 08:17:06;;;;;;;8.98;0.82;;;9.50;99.90;;;;;;4987991;28;20026;-70
2021/11/21 08:19:31;;;;;;;7.43;0.52;;;9.50;99.90;;;;;;4981076;28;20017;-70
2021/11/21 08:21:57;;;;;;;24.60;1.92;;;9.60;99.90;;;;;;4991177;28;20379;-70
2021/11/21 08:24:22;;;;;;;1.70;0.40;;;9.70;99.90;;;;;;4984438;28;20026;-70
2021/11/21 08:26:48;;;;;;;7.85;0.80;;;9.80;99.90;;;;;;4984377;28;20037;-71
2021/11/21 08:29:14;;;;;;;5.97;0.65;;;10.00;99.90;;;;;;4981057;28;20022;-71
2021/11/21 08:31:42;;;;;;;4.70;0.70;;;10.00;99.90;;;;;;4978790;28;20035;-70
2021/11/21 08:34:08;;;;;;;8.57;1.10;;;10.10;99.90;;;;;;4983624;28;20026;-70
2021/11/21 08:36:34;;;;;;;3.92;0.50;;;10.20;99.90;;;;;;4985530;28;20015;-71
2021/11/21 08:39:00;;;;;;;6.78;0.80;;;10.20;99.90;;;;;;4989659;28;20077;-71
2021/11/21 08:41:25;;;;;;;8.63;0.70;;;10.30;99.90;;;;;;4984626;28;20031;-70
2021/11/21 08:43:51;;;;;;;7.40;0.75;;;10.40;99.90;;;;;;4982297;28;20479;-71
2021/11/21 08:46:17;;;;;;;8.00;1.02;;;10.60;99.90;;;;;;4983636;28;20023;-70
2021/11/21 08:48:42;;;;;;;4.90;0.88;;;10.80;99.90;;;;;;4987120;28;20036;-70
2021/11/21 08:51:08;;;;;;;5.10;0.75;;;11.10;99.90;;;;;;4986187;28;20025;-71
2021/11/21 08:53:33;;;;;;;4.85;0.70;;;11.60;99.90;;;;;;4987828;28;20033;-71
2021/11/21 08:55:59;;;;;;;12.57;1.30;;;12.20;99.90;;;;;;4993142;28;20392;-71
2021/11/21 08:58:24;;;;;;;7.07;1.40;;;12.70;99.90;;;;;;4990833;28;20027;-71
2021/11/21 09:00:51;;;;;;;6.18;1.15;;;13.20;99.90;;;;;;4988528;28;20062;-71
2021/11/21 09:03:17;;;;;;;8.20;0.90;;;13.50;99.90;;;;;;4979178;28;20118;-71
2021/11/21 09:05:43;;;;;;;6.20;0.82;;;13.70;99.90;;;;;;4975919;28;20102;-71
2021/11/21 09:08:08;;;;;;;8.48;2.10;;;13.90;99.90;;;;;;4988125;28;20118;-71
2021/11/21 09:10:34;;;;;;;2.80;0.60;;;14.20;99.90;;;;;;4982223;28;20520;-70
2021/11/21 09:13:01;;;;;;;14.55;1.45;;;14.40;99.90;;;;;;4992103;28;20030;-71
2021/11/21 09:15:26;;;;;;;6.88;0.90;;;14.50;99.90;;;;;;4986368;28;20476;-71
2021/11/21 09:17:53;;;;;;;9.93;1.83;;;14.60;99.90;;;;;;4986632;28;20030;-71
2021/11/21 09:20:23;;;;;;;7.53;0.90;;;14.50;99.90;;;;;;4984890;28;20439;-71
2021/11/21 09:22:49;;;;;;;4.50;0.50;;;14.60;99.90;;;;;;4983434;28;20030;-71
2021/11/21 09:25:14;;;;;;;9.63;1.00;;;14.60;99.90;;;;;;4981572;28;20018;-71
2021/11/21 09:27:40;;;;;;;5.90;0.82;;;14.70;99.90;;;;;;4983422;28;20018;-71
2021/11/21 09:30:07;;;;;;;4.32;0.47;;;14.70;99.90;;;;;;4986140;28;20495;-70
2021/11/21 09:32:34;;;;;;;4.78;0.40;;;14.60;99.60;;;;;;4988199;28;20026;-73
2021/11/21 09:35:00;;;;;;;4.07;0.32;;;14.60;98.80;;;;;;4984063;28;20029;-72
2021/11/21 09:37:26;;;;;;;3.45;0.38;;;14.50;98.60;;;;;;4979508;28;20089;-72
2021/11/21 09:39:51;;;;;;;4.63;0.70;;;14.50;98.70;;;;;;4985258;28;20023;-72
2021/11/21 09:42:17;;;;;;;5.80;1.20;;;14.40;98.60;;;;;;5008760;28;20034;-71
2021/11/21 09:44:43;;;;;;;8.00;1.00;;;14.40;98.80;;;;;;4965799;28;20043;-72
2021/11/21 09:47:11;;;;;;;7.28;0.50;;;14.40;98.90;;;;;;4968106;28;20058;-72
2021/11/21 09:49:36;;;;;;;6.50;0.80;;;14.30;99.00;;;;;;4967885;28;20039;-72
2021/11/21 09:52:02;;;;;;;8.55;1.38;;;14.40;99.30;;;;;;4974409;28;20041;-71
2021/11/21 09:54:28;;;;;;;9.40;0.38;;;14.50;99.10;;;;;;4971685;28;20096;-72
2021/11/21 09:56:55;;;;;;;6.60;0.77;;;14.60;98.80;;;;;;4969698;28;20109;-71
2021/11/21 09:59:56;;;;;;;8.15;0.77;;;14.90;98.50;;;;;;4971460;28;20018;-72
2021/11/21 10:02:34;;;;;;;5.97;0.80;;;15.20;98.10;;;;;;4963792;28;20030;-72
2021/11/21 10:05:02;;;;;;;7.20;0.98;;;15.30;98.00;;;;;;4960958;28;20063;-72
2021/11/21 10:07:34;;;;;;;6.57;0.50;;;15.20;97.70;;;;;;4973433;28;20543;-72
2021/11/21 10:10:02;;;;;;;3.85;0.55;;;15.10;97.30;;;;;;4964764;28;20031;-72
2021/11/21 10:12:37;;;;;;;5.57;0.60;;;15.00;97.20;;;;;;4973087;28;20088;-72
2021/11/21 10:15:04;;;;;;;4.80;0.60;;;14.90;97.30;;;;;;4981548;28;20122;-72
2021/11/21 10:17:31;;;;;;;5.57;0.70;;;14.80;97.30;;;;;;4969759;28;20023;-72
2021/11/21 10:20:19;;;;;;;6.97;0.35;;;14.90;97.10;;;;;;4982575;28;20278;-72
2021/11/21 10:22:45;;;;;;;5.50;0.43;;;15.10;96.60;;;;;;4969604;28;20041;-72
2021/11/21 10:25:11;;;;;;;5.45;0.43;;;15.20;96.90;;;;;;4983107;28;20396;-72
2021/11/21 10:27:36;;;;;;;4.80;0.68;;;15.50;96.00;;;;;;4980305;28;20055;-72
2021/11/21 10:30:03;;;;;;;4.43;0.88;;;15.70;95.60;;;;;;4971503;28;20560;-72
2021/11/21 10:32:31;;;;;;;4.97;0.40;;;15.90;95.50;;;;;;4980528;28;20117;-72
2021/11/21 10:35:00;;;;;;;2.08;0.40;;;16.10;94.80;;;;;;4978819;28;20555;-72
2021/11/21 10:37:38;;;;;;;3.15;0.50;;;15.90;94.30;;;;;;4970045;28;20031;-72
2021/11/21 10:40:07;;;;;;;3.53;0.28;;;15.60;94.50;;;;;;4983091;28;20054;-72
2021/11/21 10:42:34;;;;;;;3.15;0.57;;;15.20;94.70;;;;;;4980466;28;20309;-70
2021/11/21 10:45:00;;;;;;;1.17;0.15;;;14.80;94.80;;;;;;4965426;28;20031;-71
2021/11/21 10:47:41;;;;;;;2.08;0.10;;;14.40;95.30;;;;;;4971809;28;20035;-71
2021/11/21 10:50:06;;;;;;;0.90;0.20;;;14.10;95.90;;;;;;4975805;28;20081;-71
2021/11/21 10:52:32;;;;;;;4.28;0.52;;;13.90;96.30;;;;;;4980894;28;20435;-70
2021/11/21 10:54:58;;;;;;;1.25;0.32;;;13.70;96.60;;;;;;4967873;28;20396;-70
2021/11/21 10:57:27;;;;;;;6.13;1.02;;;13.60;97.10;;;;;;4979060;28;20030;-71
2021/11/21 10:59:59;;;;;;;7.20;0.85;;;13.80;97.90;;;;;;4974636;28;20026;-71
2021/11/21 11:02:52;;;;;;;5.97;0.60;;;14.10;98.10;;;;;;4968295;28;20022;-70
2021/11/21 11:05:22;;;;;;;3.53;0.30;;;14.80;97.80;;;;;;4970702;28;20043;-71
2021/11/21 11:07:57;;;;;;;7.55;1.08;;;15.20;97.60;;;;;;4969591;28;20035;-71
2021/11/21 11:10:29;;;;;;;3.88;0.70;;;15.70;96.60;;;;;;4968319;28;20121;-70
2021/11/21 11:13:04;;;;;;;8.38;0.63;;;16.10;95.60;;;;;;4974827;28;20121;-70
2021/11/21 11:15:33;;;;;;;4.55;0.85;;;16.40;94.90;;;;;;4972265;28;20027;-72
2021/11/21 11:17:58;;;;;;;5.53;1.13;;;16.50;94.90;;;;;;4973993;28;20093;-71
2021/11/21 11:20:25;;;;;;;6.10;0.70;;;16.90;94.50;;;;;;4968234;28;20122;-71
2021/11/21 11:22:51;;;;;;;3.65;0.40;;;17.10;94.00;;;;;;4970576;28;20787;-71
2021/11/21 11:25:22;;;;;;;4.97;0.73;;;17.30;93.20;;;;;;4971852;28;20512;-71
2021/11/21 11:27:51;;;;;;;7.70;0.73;;;17.40;92.60;;;;;;4970074;28;20097;-71
2021/11/21 11:30:28;;;;;;;3.08;0.65;;;17.20;91.70;;;;;;4967152;28;20023;-70
2021/11/21 11:33:07;;;;;;;6.20;0.77;;;16.80;91.60;;;;;;4971547;28;20094;-71
2021/11/21 11:35:33;;;;;;;;;;;16.60;91.90;;;;;;4971035;28;20396;-71
2021/11/21 11:38:19;;;;;;;6.72;0.73;;;16.50;92.10;;;;;;4968794;28;19906;-71
2021/11/21 11:40:56;;;;;;;5.72;1.00;;;16.50;92.50;;;;;;4975327;28;20093;-71
2021/11/21 11:43:30;;;;;;;8.55;0.77;;;16.70;92.50;;;;;;4971381;28;20367;-71
2021/11/21 11:46:00;;;;;;;7.22;1.05;;;16.90;92.30;;;;;;4967411;28;20146;-71
2021/11/21 11:48:30;;;;;;;8.00;1.15;;;17.10;91.60;;;;;;4970651;28;20058;-71
2021/11/21 11:50:56;;;;;;;2.15;0.65;;;17.10;91.50;;;;;;4999893;28;20038;-71
2021/11/21 11:53:42;;;;;;;5.30;0.57;;;17.20;91.50;;;;;;4971203;28;20034;-70
2021/11/21 11:56:32;;;;;;;3.85;0.40;;;17.10;91.40;;;;;;4971193;28;20022;-70
2021/11/21 11:58:59;;;;;;;2.17;0.35;;;16.60;91.10;;;;;;4970552;28;20035;-70
2021/11/21 12:01:39;;;;;;;7.75;0.60;;;16.00;91.60;;;;;;4969682;28;20069;-70
2021/11/21 12:04:17;;;;;;;3.42;0.30;;;15.50;91.90;;;;;;4999551;28;20346;-70
2021/11/21 12:06:48;;;;;;;6.45;0.52;;;15.10;92.60;;;;;;4970572;28;20023;-70
2021/11/21 12:09:19;;;;;;;4.20;0.57;;;14.80;93.00;;;;;;4969981;28;20019;-70
2021/11/21 12:12:05;;;;;;;4.28;0.63;;;14.80;93.60;;;;;;4969920;28;20607;-70
2021/11/21 12:14:37;;;;;;;4.25;0.68;;;15.00;93.60;;;;;;4971271;28;20063;-70
2021/11/21 12:17:07;;;;;;;8.07;0.80;;;15.30;93.90;;;;;;4968030;28;20046;-70
2021/11/21 12:19:52;;;;;;;5.63;1.15;;;15.50;93.70;;;;;;4969673;28;20029;-70
2021/11/21 12:22:31;;;;;;;6.28;0.63;;;15.80;93.60;;;;;;4971538;28;20014;-70
2021/11/21 12:24:57;;;;;;;5.93;1.88;;;16.10;93.30;;;;;;4972766;28;20018;-70
2021/11/21 12:27:26;;;;;;;9.13;1.00;;;16.30;93.30;;;;;;4967057;28;20065;-71
2021/11/21 12:30:07;;;;;;;4.07;0.73;;;16.40;92.90;;;;;;4971478;28;20357;-70
2021/11/21 12:32:34;;;;;;;5.30;1.00;;;16.50;92.60;;;;;;4970867;28;20035;-71
2021/11/21 12:35:20;;;;;;;6.63;1.48;;;16.50;93.00;;;;;;4970757;28;20019;-70
2021/11/21 12:37:46;;;;;;;7.68;0.68;;;16.60;93.00;;;;;;4971484;28;20126;-71
2021/11/21 12:40:13;;;;;;;5.90;0.68;;;16.40;92.60;;;;;;4969436;28;20070;-70
2021/11/21 12:42:41;;;;;;;4.20;0.63;;;16.10;92.80;;;;;;4970855;28;20031;-70
2021/11/21 12:45:07;;;;;;;5.82;0.50;;;15.90;92.20;;;;;;4968488;28;20481;-71
2021/11/21 12:47:34;;;;;;;2.25;0.30;;;15.80;91.70;;;;;;4967836;28;20037;-71